Time;durP1;ratioP1;P1;durP2;ratioP2;P2;SDS_P1;SDS_P2;PMS_P1;PMS_P2;Temp;Humidity;BMP_temperature;BMP_pressure;BME280_temperature;BME280_humidity;BME280_pressure;Samples;Min_cycle;Max_cycle;Signal;HPM_P1;HPM_P2
2022/05/08 00:00:33;;;;;;;4.13;3.13;;;;;;;12.55;68.49;101167.06;5071540;28;20058;-67
2022/05/08 00:02:58;;;;;;;4.38;3.20;;;;;;;12.50;68.38;101161.00;5072090;28;20090;-67
2022/05/08 00:05:27;;;;;;;5.70;3.40;;;;;;;12.47;68.44;101161.91;5072850;28;20068;-67
2022/05/08 00:07:53;;;;;;;5.07;3.08;;;;;;;12.45;68.44;101163.72;5072032;28;20060;-68
2022/05/08 00:10:19;;;;;;;5.30;3.72;;;;;;;12.44;68.74;101161.97;5041375;28;20060;-67
2022/05/08 00:12:45;;;;;;;4.80;3.20;;;;;;;12.38;68.95;101164.72;5071729;28;20060;-67
2022/05/08 00:15:10;;;;;;;5.25;3.58;;;;;;;12.41;68.70;101167.31;5072832;28;20170;-67
2022/05/08 00:17:36;;;;;;;5.95;3.70;;;;;;;12.14;70.13;101168.63;5071462;28;20119;-68
2022/05/08 00:20:04;;;;;;;5.30;3.72;;;;;;;12.02;70.74;101161.78;5073089;28;20367;-68
2022/05/08 00:22:30;;;;;;;4.28;3.10;;;;;;;12.17;69.81;101159.78;5072135;28;20040;-67
2022/05/08 00:24:56;;;;;;;5.47;3.58;;;;;;;12.07;70.42;101156.44;5072772;28;20135;-69
2022/05/08 00:27:21;;;;;;;5.07;3.75;;;;;;;12.11;69.96;101152.00;5072569;28;20068;-67
2022/05/08 00:29:47;;;;;;;7.18;4.45;;;;;;;12.10;70.20;101163.44;5071336;28;20394;-67
2022/05/08 00:32:12;;;;;;;7.32;4.07;;;;;;;12.00;70.28;101145.09;5072978;28;20508;-67
2022/05/08 00:34:38;;;;;;;5.15;3.40;;;;;;;11.95;70.88;101164.53;5072296;28;20047;-67
2022/05/08 00:37:05;;;;;;;4.80;3.70;;;;;;;11.92;70.90;101164.56;5071566;28;20120;-67
2022/05/08 00:39:32;;;;;;;4.53;3.15;;;;;;;11.84;71.20;101164.66;5053209;28;20041;-66
2022/05/08 00:41:58;;;;;;;4.40;3.35;;;;;;;11.80;71.56;101162.94;5072643;28;20042;-67
2022/05/08 00:44:23;;;;;;;5.07;3.85;;;;;;;11.80;71.53;101162.94;5071116;28;20372;-68
2022/05/08 00:46:49;;;;;;;5.68;3.33;;;;;;;11.76;71.49;101161.25;5071539;28;20059;-68
2022/05/08 00:49:15;;;;;;;5.57;4.32;;;;;;;11.76;71.64;101162.09;5072697;28;20048;-68
2022/05/08 00:51:43;;;;;;;6.35;3.92;;;;;;;11.79;71.34;101161.22;5070565;28;20029;-67
2022/05/08 00:54:08;;;;;;;4.97;3.42;;;;;;;11.73;71.66;101167.44;5069569;28;20115;-68
2022/05/08 00:56:34;;;;;;;6.55;4.22;;;;;;;11.60;72.39;101173.75;5071594;28;20120;-67
2022/05/08 00:59:00;;;;;;;6.25;4.20;;;;;;;11.57;72.73;101172.03;5073204;28;20036;-68
2022/05/08 01:01:25;;;;;;;6.20;4.32;;;;;;;11.55;72.78;101175.56;5070563;28;20127;-67
2022/05/08 01:03:51;;;;;;;5.78;4.00;;;;;;;11.53;72.83;101174.72;5062736;28;20036;-68
2022/05/08 01:06:18;;;;;;;4.47;3.42;;;;;;;11.58;72.70;101178.16;5077001;28;20040;-68
2022/05/08 01:08:48;;;;;;;6.20;3.22;;;;;;;11.62;72.17;101176.38;5052277;28;20025;-67
2022/05/08 01:11:15;;;;;;;4.72;3.10;;;;;;;11.59;72.44;101180.78;5072415;28;20108;-67
2022/05/08 01:13:43;;;;;;;5.70;4.20;;;;;;;11.49;72.87;101171.28;5069813;28;20047;-67
2022/05/08 01:16:14;;;;;;;5.40;3.65;;;;;;;11.53;72.55;101178.25;5072555;28;20048;-67
2022/05/08 01:18:40;;;;;;;5.38;4.00;;;;;;;11.43;73.12;101173.97;5075890;28;20029;-67
2022/05/08 01:21:10;;;;;;;6.63;3.72;;;;;;;11.43;73.25;101173.09;5071414;28;20033;-67
2022/05/08 01:23:40;;;;;;;5.80;3.55;;;;;;;11.38;73.66;101175.78;5071263;28;20399;-66
2022/05/08 01:26:06;;;;;;;6.65;3.67;;;;;;;11.46;72.88;101167.81;5071538;28;20028;-67
2022/05/08 01:28:33;;;;;;;4.78;3.15;;;;;;;11.50;72.86;101167.75;5045261;28;20025;-67
2022/05/08 01:30:58;;;;;;;5.82;3.75;;;;;;;11.47;72.90;101169.53;5071096;28;20082;-67
2022/05/08 01:33:24;;;;;;;5.47;3.33;;;;;;;11.39;73.29;101163.50;5074776;28;20064;-67
2022/05/08 01:35:50;;;;;;;6.00;3.50;;;;;;;11.35;72.95;101163.53;5070262;28;20113;-67
2022/05/08 01:38:17;;;;;;;5.22;3.25;;;;;;;11.12;74.39;101168.19;5071976;28;20033;-67
2022/05/08 01:40:43;;;;;;;5.65;4.13;;;;;;;11.05;75.13;101166.50;5069977;28;20028;-67
2022/05/08 01:43:10;;;;;;;4.82;3.88;;;;;;;11.14;74.83;101176.09;5071313;28;20119;-68
2022/05/08 01:45:36;;;;;;;5.68;3.70;;;;;;;11.23;74.06;101160.19;5053534;28;20123;-67
2022/05/08 01:50:47;;;;;;;4.95;3.53;;;;;;;11.27;73.63;101172.41;5072691;28;20096;-67
2022/05/08 01:53:13;;;;;;;6.88;4.20;;;;;;;11.29;73.39;101173.25;5073031;28;20036;-69
2022/05/08 01:55:38;;;;;;;5.80;3.60;;;;;;;11.23;73.99;101181.22;5069506;28;20052;-69
2022/05/08 01:58:04;;;;;;;8.32;4.43;;;;;;;11.22;74.07;101182.13;5069574;28;20052;-68
2022/05/08 02:00:30;;;;;;;5.68;3.95;;;;;;;11.19;74.26;101188.28;5053941;28;20033;-69
2022/05/08 02:03:00;;;;;;;5.88;3.80;;;;;;;11.11;74.74;101171.72;5053610;28;20033;-69
2022/05/08 02:05:28;;;;;;;9.82;4.88;;;;;;;10.91;75.66;101173.69;5073203;28;20074;-68
2022/05/08 02:07:54;;;;;;;6.57;4.43;;;;;;;10.89;75.63;101173.72;5051618;28;20098;-68
2022/05/08 02:10:20;;;;;;;6.75;4.20;;;;;;;10.80;76.04;101179.06;5074379;28;20070;-67
2022/05/08 02:12:46;;;;;;;5.20;3.50;;;;;;;10.68;76.86;101181.81;5059144;28;20040;-68
2022/05/08 02:15:14;;;;;;;5.57;3.97;;;;;;;10.67;77.33;101172.19;5074697;28;20049;-68
2022/05/08 02:17:40;;;;;;;5.22;4.28;;;;;;;10.61;77.32;101175.72;5073937;28;20032;-68
2022/05/08 02:20:08;;;;;;;8.05;4.45;;;;;;;10.58;77.56;101181.03;5076193;28;20119;-67
2022/05/08 02:22:35;;;;;;;6.68;4.40;;;;;;;10.49;78.31;101174.09;5071954;28;20032;-68
2022/05/08 02:25:01;;;;;;;6.35;4.50;;;;;;;10.57;77.86;101188.03;5073979;28;20040;-68
2022/05/08 02:27:34;;;;;;;5.78;4.00;;;;;;;10.57;78.10;101177.53;5078389;28;20503;-67
2022/05/08 02:30:00;;;;;;;6.75;4.22;;;;;;;10.36;78.97;101185.56;5064887;28;20040;-68
2022/05/08 02:32:25;;;;;;;5.35;4.00;;;;;;;10.35;78.91;101186.47;5074615;28;20090;-68
2022/05/08 02:34:51;;;;;;;5.82;4.68;;;;;;;10.38;78.63;101185.59;5075207;28;20036;-67
2022/05/08 02:37:16;;;;;;;6.50;4.60;;;;;;;10.31;79.63;101187.38;5072813;28;20372;-67
2022/05/08 02:39:43;;;;;;;6.18;4.32;;;;;;;10.34;79.38;101188.22;5077388;28;20064;-68
2022/05/08 02:42:08;;;;;;;7.07;5.07;;;;;;;10.32;79.62;101195.25;5073194;28;20107;-68
2022/05/08 02:44:34;;;;;;;6.75;5.00;;;;;;;10.38;79.72;101191.72;5072967;28;20063;-68
2022/05/08 02:46:59;;;;;;;8.02;5.65;;;;;;;10.25;80.52;101187.41;5074432;28;20124;-68
2022/05/08 02:49:25;;;;;;;7.20;5.15;;;;;;;10.17;80.99;101183.94;5041565;28;20472;-68
2022/05/08 02:51:50;;;;;;;12.50;6.28;;;;;;;10.16;81.14;101188.31;5074649;28;20036;-68
2022/05/08 02:54:15;;;;;;;7.35;5.22;;;;;;;10.11;81.67;101193.63;5074584;28;20041;-67
2022/05/08 02:59:25;;;;;;;6.75;4.50;;;;;;;10.07;81.61;101189.25;5072415;28;20534;-68
2022/05/08 03:01:50;;;;;;;8.15;5.10;;;;;;;10.17;81.22;101195.31;5077552;28;20536;-68
2022/05/08 03:04:16;;;;;;;8.50;5.55;;;;;;;10.25;80.67;101196.19;5073552;28;20089;-68
2022/05/08 03:06:41;;;;;;;8.70;5.32;;;;;;;10.37;79.70;101197.81;5054624;28;20496;-69
2022/05/08 03:09:08;;;;;;;6.20;4.70;;;;;;;10.39;79.16;101201.31;5071451;28;20483;-69
2022/05/08 03:11:33;;;;;;;7.95;5.82;;;;;;;10.31;79.67;101198.75;5073970;28;20070;-70
2022/05/08 03:13:59;;;;;;;8.77;5.82;;;;;;;10.33;79.24;101190.84;5074071;28;20040;-67
2022/05/08 03:16:28;;;;;;;6.88;5.50;;;;;;;10.40;78.64;101195.19;5073801;28;20032;-67
2022/05/08 03:18:55;;;;;;;9.23;5.80;;;;;;;10.44;78.52;101196.03;5056771;28;20036;-67
2022/05/08 03:21:22;;;;;;;7.25;5.82;;;;;;;10.42;78.80;101193.44;5072930;28;20032;-68
2022/05/08 03:23:47;;;;;;;8.45;6.10;;;;;;;10.49;78.15;101192.50;5072524;28;20126;-68
2022/05/08 03:26:14;;;;;;;8.18;5.65;;;;;;;10.49;78.13;101187.25;5072335;28;20151;-68
2022/05/08 03:28:40;;;;;;;6.30;4.95;;;;;;;10.49;78.11;101192.50;5071010;28;20058;-68
2022/05/08 03:31:06;;;;;;;7.03;5.60;;;;;;;10.58;77.41;101191.53;5056225;28;20028;-69
2022/05/08 03:33:33;;;;;;;10.38;6.65;;;;;;;10.52;77.64;101196.84;5072257;28;20033;-69
2022/05/08 03:36:00;;;;;;;7.45;5.18;;;;;;;10.60;77.29;101200.28;5072406;28;20059;-69
2022/05/08 03:38:27;;;;;;;7.53;5.68;;;;;;;10.65;76.88;101187.09;5071818;28;20523;-67
2022/05/08 03:40:53;;;;;;;7.82;5.05;;;;;;;10.76;76.14;101190.50;5073571;28;20469;-67
2022/05/08 03:43:19;;;;;;;7.57;6.15;;;;;;;10.72;76.33;101188.78;5069032;28;20044;-67
2022/05/08 03:45:45;;;;;;;11.00;6.18;;;;;;;10.81;75.65;101196.56;5073821;28;20024;-66
2022/05/08 03:48:10;;;;;;;7.90;5.38;;;;;;;10.88;75.24;101195.63;5057649;28;20028;-67
2022/05/08 03:50:36;;;;;;;8.25;6.32;;;;;;;10.83;75.62;101197.44;5072650;28;20388;-67
2022/05/08 03:53:03;;;;;;;7.65;5.43;;;;;;;10.79;76.15;101198.34;5072998;28;20029;-68
2022/05/08 03:55:29;;;;;;;7.20;5.38;;;;;;;10.82;76.01;101191.31;5074056;28;20437;-67
2022/05/08 03:57:54;;;;;;;8.05;6.03;;;;;;;10.84;75.83;101193.91;5068583;28;20555;-67
2022/05/08 04:00:20;;;;;;;9.50;6.22;;;;;;;10.84;76.41;101202.66;5068221;28;20037;-66
2022/05/08 04:02:46;;;;;;;8.55;5.60;;;;;;;10.98;75.57;101202.53;5072855;28;20073;-67
2022/05/08 04:05:12;;;;;;;7.90;5.95;;;;;;;11.07;75.23;101197.19;5071996;28;20049;-66
2022/05/08 04:07:38;;;;;;;8.48;5.95;;;;;;;11.15;75.03;101209.38;5075115;28;20040;-63
2022/05/08 04:10:04;;;;;;;8.90;6.63;;;;;;;11.25;74.63;101201.38;5074954;28;20040;-67
2022/05/08 04:12:30;;;;;;;8.45;5.88;;;;;;;11.28;74.50;101201.31;5054861;28;20064;-66
2022/05/08 04:14:55;;;;;;;9.13;6.45;;;;;;;11.40;74.29;101200.31;5070940;28;20141;-67
2022/05/08 04:17:21;;;;;;;7.88;5.78;;;;;;;11.57;73.54;101208.88;5071606;28;20039;-66
2022/05/08 04:19:49;;;;;;;9.40;5.57;;;;;;;11.69;72.94;101199.97;5039015;28;20040;-67
2022/05/08 04:24:59;;;;;;;11.20;6.90;;;;;;;11.60;73.59;101197.44;5072882;28;20081;-68
2022/05/08 04:27:25;;;;;;;9.18;6.15;;;;;;;11.67;73.43;101204.38;5069570;28;20714;-68
2022/05/08 04:29:50;;;;;;;8.93;6.47;;;;;;;11.68;73.47;101200.84;5058315;28;20464;-67
2022/05/08 04:32:16;;;;;;;10.45;6.88;;;;;;;11.79;73.17;101198.06;5071921;28;20033;-67
2022/05/08 04:34:41;;;;;;;11.68;7.03;;;;;;;11.85;72.80;101205.94;5072841;28;20036;-69
2022/05/08 04:37:07;;;;;;;8.02;5.90;;;;;;;11.91;72.86;101203.19;5075940;28;20418;-69
2022/05/08 04:39:33;;;;;;;13.50;7.65;;;;;;;11.88;73.38;101208.50;5069967;28;20109;-68
2022/05/08 04:41:59;;;;;;;9.07;6.57;;;;;;;11.96;72.83;101209.25;5055111;28;20120;-68
2022/05/08 04:44:24;;;;;;;12.80;7.15;;;;;;;12.02;72.53;101210.97;5074251;28;20115;-69
2022/05/08 04:46:50;;;;;;;8.00;5.80;;;;;;;12.11;72.08;101199.41;5073048;28;20040;-68
2022/05/08 04:49:15;;;;;;;10.40;5.93;;;;;;;12.29;71.40;101200.00;5071797;28;20074;-67
2022/05/08 04:51:41;;;;;;;10.25;5.65;;;;;;;12.49;70.48;101196.19;5069238;28;20063;-67
2022/05/08 04:54:06;;;;;;;11.35;6.35;;;;;;;12.61;70.10;101202.97;5071341;28;20089;-67
2022/05/08 04:56:31;;;;;;;9.65;6.78;;;;;;;12.57;70.37;101203.06;5071305;28;20095;-67
2022/05/08 04:58:57;;;;;;;11.02;6.88;;;;;;;12.56;70.47;101197.78;5074549;28;20070;-68
2022/05/08 05:01:23;;;;;;;8.27;5.97;;;;;;;12.70;69.80;101200.22;5071833;28;20041;-67
2022/05/08 05:03:50;;;;;;;12.20;7.18;;;;;;;12.80;69.63;101204.41;5072319;28;20025;-68
2022/05/08 05:06:16;;;;;;;9.40;7.15;;;;;;;12.84;69.53;101200.81;5070850;28;20098;-67
2022/05/08 05:08:42;;;;;;;11.85;8.60;;;;;;;12.95;69.01;101201.50;5051577;28;20115;-67
2022/05/08 05:11:09;;;;;;;10.05;6.47;;;;;;;13.11;68.39;101206.50;5071262;28;20519;-67
2022/05/08 05:13:38;;;;;;;9.35;5.75;;;;;;;13.21;67.76;101208.94;5053208;28;20028;-67
2022/05/08 05:16:05;;;;;;;9.85;5.90;;;;;;;13.20;67.70;101206.31;5070536;28;20036;-67
2022/05/08 05:18:31;;;;;;;10.98;6.25;;;;;;;13.22;67.36;101210.66;5055294;28;20032;-68
2022/05/08 05:20:56;;;;;;;9.18;5.63;;;;;;;13.25;67.17;101208.00;5071392;28;20079;-68
2022/05/08 05:23:22;;;;;;;10.98;5.70;;;;;;;13.28;67.00;101207.06;5071613;28;20036;-67
2022/05/08 05:25:49;;;;;;;8.98;5.25;;;;;;;13.36;66.78;101218.34;5071418;28;20029;-67
2022/05/08 05:28:14;;;;;;;9.55;5.30;;;;;;;13.27;66.50;101219.41;5052869;28;20067;-66
2022/05/08 05:30:39;;;;;;;8.82;5.35;;;;;;;13.54;65.66;101223.25;5051190;28;20063;-66
2022/05/08 05:33:05;;;;;;;7.80;5.13;;;;;;;13.63;65.20;101226.59;5079348;28;20489;-66
2022/05/08 05:35:30;;;;;;;9.82;5.20;;;;;;;13.65;64.73;101236.25;5071157;28;20070;-67
2022/05/08 05:37:56;;;;;;;11.27;5.57;;;;;;;13.70;64.20;101234.38;5073935;28;20391;-67
2022/05/08 05:40:21;;;;;;;11.38;5.00;;;;;;;13.85;63.84;101238.47;5073024;28;20054;-68
2022/05/08 05:42:47;;;;;;;8.63;4.75;;;;;;;14.11;63.11;101244.94;5044319;28;20055;-69
2022/05/08 05:45:13;;;;;;;10.88;5.32;;;;;;;14.21;62.88;101241.19;5077526;28;20058;-68
2022/05/08 05:47:50;;;;;;;10.65;5.07;;;;;;;14.22;62.57;101240.28;5074160;28;20036;-68
2022/05/08 05:50:23;;;;;;;9.95;5.32;;;;;;;14.33;62.39;101243.56;5077277;28;20086;-68
2022/05/08 05:52:49;;;;;;;8.25;4.22;;;;;;;14.29;61.97;101245.41;5075649;28;20047;-68
2022/05/08 05:55:16;;;;;;;8.07;5.50;;;;;;;14.35;61.55;101249.66;5073976;28;20070;-68
2022/05/08 05:57:42;;;;;;;7.53;4.65;;;;;;;14.38;60.68;101246.09;5059534;28;20037;-68
2022/05/08 06:00:13;;;;;;;8.85;5.25;;;;;;;14.39;59.75;101255.75;5074364;28;20395;-67
2022/05/08 06:02:40;;;;;;;7.05;4.45;;;;;;;14.66;59.69;101249.84;5074380;28;20033;-67
2022/05/08 06:05:10;;;;;;;8.30;4.18;;;;;;;14.83;58.94;101259.97;5073166;28;20109;-67
2022/05/08 06:07:37;;;;;;;9.57;4.60;;;;;;;14.75;58.69;101254.00;5072545;28;20028;-66
2022/05/08 06:10:05;;;;;;;6.20;3.47;;;;;;;14.82;58.02;101255.59;5072397;28;20098;-68
2022/05/08 06:12:31;;;;;;;8.60;3.72;;;;;;;14.83;57.84;101264.41;5071988;28;20024;-69
2022/05/08 06:14:57;;;;;;;9.20;4.03;;;;;;;14.81;57.56;101269.75;5074430;28;20040;-67
2022/05/08 06:17:22;;;;;;;7.25;3.65;;;;;;;14.97;56.95;101255.22;5060181;28;20032;-67
2022/05/08 06:19:48;;;;;;;9.45;3.40;;;;;;;15.14;56.60;101259.19;5072586;28;20070;-68
2022/05/08 06:22:13;;;;;;;9.43;3.08;;;;;;;15.12;55.83;101250.41;5075269;28;20029;-68
2022/05/08 06:24:39;;;;;;;10.60;3.65;;;;;;;15.21;55.41;101253.69;5076070;28;20036;-68
2022/05/08 06:27:05;;;;;;;9.77;3.85;;;;;;;15.32;54.32;101255.16;5072238;28;20037;-68
2022/05/08 06:29:31;;;;;;;10.05;3.70;;;;;;;15.47;54.37;101249.47;5072078;28;20119;-67
2022/05/08 06:31:57;;;;;;;8.77;3.88;;;;;;;15.56;52.96;101265.09;5070868;28;20051;-67
2022/05/08 06:34:22;;;;;;;11.60;4.13;;;;;;;15.58;52.43;101265.06;5056893;28;20032;-67
2022/05/08 06:36:48;;;;;;;10.30;3.70;;;;;;;15.66;52.45;101266.59;5056278;28;20039;-67
2022/05/08 06:39:13;;;;;;;8.60;3.20;;;;;;;15.71;52.05;101263.81;5072859;28;20071;-68
2022/05/08 06:41:40;;;;;;;9.48;3.08;;;;;;;15.84;51.32;101265.22;5075123;28;20472;-68
2022/05/08 06:44:05;;;;;;;8.73;2.80;;;;;;;15.81;51.35;101262.66;5073658;28;20037;-68
2022/05/08 06:46:32;;;;;;;8.00;2.85;;;;;;;15.94;50.08;101265.81;5077582;28;20046;-67
2022/05/08 06:49:02;;;;;;;11.05;3.00;;;;;;;15.99;48.47;101275.34;5075698;28;20033;-67
2022/05/08 06:51:27;;;;;;;9.05;2.58;;;;;;;16.14;49.39;101275.81;5073065;28;20040;-68
2022/05/08 06:53:53;;;;;;;11.90;2.92;;;;;;;16.05;47.92;101284.03;5075487;28;20590;-69
2022/05/08 06:56:18;;;;;;;9.40;2.53;;;;;;;16.18;48.35;101270.34;5074699;28;20042;-66
2022/05/08 07:01:42;;;;;;;9.68;2.95;;;;;;;16.32;47.67;101269.03;5071704;28;20075;-67
2022/05/08 07:04:09;;;;;;;8.00;2.70;;;;;;;16.36;47.71;101273.38;5067567;28;20036;-67
2022/05/08 07:06:37;;;;;;;11.15;2.83;;;;;;;16.42;46.88;101273.16;5061672;28;20064;-67
2022/05/08 07:09:04;;;;;;;7.43;2.10;;;;;;;16.59;47.49;101275.25;5072686;28;20123;-68
2022/05/08 07:11:33;;;;;;;7.93;2.17;;;;;;;16.71;47.01;101270.41;5058393;28;20039;-68
2022/05/08 07:14:00;;;;;;;10.15;2.72;;;;;;;16.82;46.36;101286.03;5065861;28;20040;-67
2022/05/08 07:16:26;;;;;;;6.55;2.05;;;;;;;16.93;45.82;101277.72;5072827;28;20051;-68
2022/05/08 07:18:51;;;;;;;10.73;2.30;;;;;;;16.90;45.54;101278.69;5088041;28;20460;-68
2022/05/08 07:21:19;;;;;;;7.80;2.05;;;;;;;16.84;44.95;101292.16;5089108;28;20119;-68
2022/05/08 07:23:44;;;;;;;12.23;2.50;;;;;;;16.80;45.14;101303.81;5081304;28;20043;-69
2022/05/08 07:26:09;;;;;;;13.02;2.35;;;;;;;16.73;45.49;101286.34;5070971;28;20025;-68
2022/05/08 07:28:35;;;;;;;11.43;2.20;;;;;;;16.74;44.20;101286.28;5073732;28;20040;-68
2022/05/08 07:31:02;;;;;;;7.50;1.85;;;;;;;16.76;44.89;101304.81;5073101;28;20045;-68
2022/05/08 07:33:29;;;;;;;9.02;2.53;;;;;;;16.71;44.14;101291.66;5075617;28;20037;-68
2022/05/08 07:36:12;;;;;;;11.27;2.40;;;;;;;16.74;44.25;101299.53;5058232;28;20476;-68
2022/05/08 07:38:42;;;;;;;8.20;1.92;;;;;;;16.95;44.17;101295.31;5072596;28;20037;-66
2022/05/08 07:41:08;;;;;;;7.50;2.10;;;;;;;17.13;43.72;101290.31;5070537;28;20440;-67
2022/05/08 07:43:34;;;;;;;9.73;2.30;;;;;;;17.08;43.32;101306.41;5072203;28;20039;-68
2022/05/08 07:46:00;;;;;;;5.85;2.22;;;;;;;16.96;42.50;101297.06;5059286;28;20119;-68
2022/05/08 07:48:26;;;;;;;10.18;2.20;;;;;;;17.06;43.41;101291.44;5073717;28;20464;-68
2022/05/08 07:50:51;;;;;;;9.40;2.08;;;;;;;17.13;42.42;101314.22;5056351;28;20028;-68
2022/05/08 07:53:16;;;;;;;11.20;2.38;;;;;;;17.17;42.71;101290.16;5075716;28;20558;-68
2022/05/08 07:55:42;;;;;;;8.18;1.65;;;;;;;17.13;41.84;101292.97;5072367;28;20040;-68
2022/05/08 07:58:09;;;;;;;8.43;1.92;;;;;;;17.35;41.45;101293.94;5072197;28;20043;-68
2022/05/08 08:00:36;;;;;;;7.80;2.00;;;;;;;17.23;40.93;101305.00;5071863;28;20032;-68
2022/05/08 08:03:03;;;;;;;5.82;1.73;;;;;;;17.20;41.05;101300.69;5073115;28;20513;-68
2022/05/08 08:05:29;;;;;;;9.82;2.58;;;;;;;17.00;40.38;101311.09;5068192;28;20712;-68
2022/05/08 08:07:55;;;;;;;8.32;1.92;;;;;;;17.13;41.16;101320.38;5076385;28;20037;-69
2022/05/08 08:10:20;;;;;;;9.48;1.83;;;;;;;17.10;41.40;101314.31;5073356;28;20165;-69
2022/05/08 08:12:46;;;;;;;5.13;1.50;;;;;;;16.91;41.94;101306.09;5053284;28;20475;-69
2022/05/08 08:15:12;;;;;;;11.55;2.22;;;;;;;16.79;40.16;101310.00;5072133;28;20536;-68
2022/05/08 08:17:38;;;;;;;11.70;2.17;;;;;;;17.03;40.09;101329.56;5067543;28;20590;-68
2022/05/08 08:20:04;;;;;;;10.73;2.53;;;;;;;17.11;40.44;101316.03;5064436;28;20062;-69
2022/05/08 08:22:30;;;;;;;10.07;2.15;;;;;;;17.10;39.73;101323.13;5052139;28;20041;-69
2022/05/08 08:24:56;;;;;;;7.03;1.67;;;;;;;17.06;40.70;101316.19;5054233;28;20036;-69
2022/05/08 08:27:22;;;;;;;10.73;1.90;;;;;;;17.08;40.39;101311.72;5070076;28;20032;-68
2022/05/08 08:29:47;;;;;;;8.85;2.05;;;;;;;17.13;39.05;101304.44;5037565;28;20044;-69
2022/05/08 08:32:13;;;;;;;5.07;1.52;;;;;;;17.27;39.58;101309.28;5071870;28;20464;-69
2022/05/08 08:34:38;;;;;;;6.53;1.50;;;;;;;17.42;38.66;101327.34;5071242;28;20036;-69
2022/05/08 08:37:04;;;;;;;5.68;1.50;;;;;;;17.55;37.73;101311.81;5072695;28;20043;-68
2022/05/08 08:39:30;;;;;;;7.13;1.73;;;;;;;17.61;36.41;101297.47;5071442;28;20032;-69
2022/05/08 08:42:29;;;;;;;7.03;1.77;;;;;;;17.77;33.85;101311.97;5073115;28;20036;-68
2022/05/08 08:48:06;;;;;;;4.88;1.58;;;;;;;17.74;35.23;101314.69;5072803;28;20108;-69
2022/05/08 08:50:33;;;;;;;6.05;1.50;;;;;;;18.09;36.12;101312.56;5071355;28;20033;-68
2022/05/08 08:53:01;;;;;;;6.95;1.83;;;;;;;17.98;32.58;101326.25;5065454;28;20044;-68
2022/05/08 08:55:27;;;;;;;8.95;1.52;;;;;;;18.00;33.76;101321.75;5071017;28;20066;-68
2022/05/08 08:57:53;;;;;;;3.30;1.10;;;;;;;18.24;33.16;101327.06;5072552;28;20506;-69
2022/05/08 09:00:21;;;;;;;5.10;1.33;;;;;;;18.10;31.80;101330.22;5071018;28;20033;-67
2022/05/08 09:02:47;;;;;;;5.80;1.48;;;;;;;18.12;30.85;101334.59;5071482;28;20087;-69
2022/05/08 09:05:13;;;;;;;8.35;1.85;;;;;;;17.92;32.08;101319.38;5067054;28;20076;-67
2022/05/08 09:07:47;;;;;;;7.53;3.00;;;;;;;18.12;30.94;101321.28;5070965;28;20045;-69
2022/05/08 09:10:21;;;;;;;5.47;1.70;;;;;;;18.15;29.10;101333.56;5071366;28;20036;-68
2022/05/08 09:12:52;;;;;;;6.35;1.40;;;;;;;18.20;28.85;101327.19;5071327;28;20036;-68
2022/05/08 09:15:35;;;;;;;5.72;1.30;;;;;;;18.10;29.29;101340.88;5076316;28;20064;-68
2022/05/08 09:18:05;;;;;;;;;;;;;;;18.24;29.23;101343.03;5075697;28;20032;-68
2022/05/08 09:20:42;;;;;;;4.95;1.00;;;;;;;18.34;30.26;101331.94;5076465;28;19916;-69
2022/05/08 09:23:15;;;;;;;6.78;1.23;;;;;;;18.35;29.75;101341.69;5071393;28;20028;-68
2022/05/08 09:25:57;;;;;;;5.15;1.38;;;;;;;18.38;31.26;101335.34;5074897;28;20487;-68
2022/05/08 09:28:29;;;;;;;7.47;1.70;;;;;;;18.39;29.48;101343.31;5074771;28;20115;-69
2022/05/08 09:31:02;;;;;;;4.43;1.30;;;;;;;18.61;29.24;101337.13;5076142;28;20563;-69
2022/05/08 09:33:38;;;;;;;5.78;1.48;;;;;;;18.59;29.64;101333.63;5074730;28;20032;-68
2022/05/08 09:36:08;;;;;;;4.82;1.67;;;;;;;18.76;31.19;101336.53;5075072;28;20037;-68
2022/05/08 09:38:56;;;;;;;6.50;1.50;;;;;;;18.81;28.61;101339.88;5075890;28;20043;-68
2022/05/08 09:41:38;;;;;;;4.25;1.23;;;;;;;18.89;29.43;101332.44;5074661;28;20143;-68
2022/05/08 09:44:24;;;;;;;7.47;1.57;;;;;;;19.01;29.30;101331.06;5069526;28;20056;-68
2022/05/08 09:46:49;;;;;;;4.72;1.40;;;;;;;18.93;29.48;101333.19;5074931;28;20109;-69
2022/05/08 09:49:19;;;;;;;5.45;1.52;;;;;;;19.07;28.15;101337.91;5044979;28;20037;-68
2022/05/08 09:51:48;;;;;;;4.00;1.20;;;;;;;19.17;29.53;101333.97;5074377;28;20032;-69
2022/05/08 09:54:16;;;;;;;4.82;1.30;;;;;;;18.95;28.07;101342.84;5075639;28;20028;-69
2022/05/08 09:56:44;;;;;;;6.47;1.42;;;;;;;18.93;29.15;101339.38;5074403;28;20093;-69
2022/05/08 09:59:14;;;;;;;2.70;1.10;;;;;;;19.02;29.52;101335.47;5074619;28;20024;-69
2022/05/08 10:01:42;;;;;;;4.50;1.23;;;;;;;19.15;30.18;101335.81;5074352;28;20048;-69
2022/05/08 10:04:07;;;;;;;5.22;1.40;;;;;;;19.29;30.25;101336.09;5074380;28;20041;-68
2022/05/08 10:06:38;;;;;;;2.95;1.40;;;;;;;19.52;29.10;101326.25;5075168;28;20129;-68
2022/05/08 10:14:40;;;;;;;3.78;1.30;;;;;;;19.73;30.29;101333.31;5076480;28;20094;-68
2022/05/08 10:17:06;;;;;;;7.25;1.42;;;;;;;19.79;30.00;101335.72;5075961;28;20032;-68
2022/05/08 10:19:32;;;;;;;5.55;1.40;;;;;;;19.65;30.17;101338.13;5075005;28;20028;-68
2022/05/08 10:22:02;;;;;;;3.30;1.38;;;;;;;19.58;29.17;101336.63;5074860;28;20486;-68
2022/05/08 10:24:38;;;;;;;6.47;1.50;;;;;;;19.62;28.59;101338.25;5072397;28;20383;-65
2022/05/08 10:27:26;;;;;;;4.57;1.25;;;;;;;19.29;28.49;101341.44;5086793;28;20483;-68
2022/05/08 10:29:52;;;;;;;5.25;1.90;;;;;;;19.26;30.14;101340.69;5095142;28;20097;-69
2022/05/08 10:32:33;;;;;;;5.93;1.23;;;;;;;19.29;29.51;101338.75;5094372;28;20032;-68
2022/05/08 10:35:11;;;;;;;4.57;1.35;;;;;;;19.34;30.00;101350.09;5079062;28;20488;-69
2022/05/08 10:37:38;;;;;;;6.18;1.38;;;;;;;19.40;30.88;101341.84;5074858;28;20028;-69
2022/05/08 10:40:25;;;;;;;4.78;1.30;;;;;;;19.44;30.03;101345.25;5057516;28;20033;-69
2022/05/08 10:43:00;;;;;;;4.97;1.50;;;;;;;19.21;29.89;101348.88;5054622;28;20040;-69
2022/05/08 10:45:46;;;;;;;2.58;1.08;;;;;;;19.52;29.25;101344.91;5071402;28;20520;-69
2022/05/08 10:48:16;;;;;;;7.18;1.73;;;;;;;19.44;28.15;101343.44;5055427;28;20059;-68
2022/05/08 10:50:45;;;;;;;4.88;1.52;;;;;;;19.32;28.11;101343.97;5054634;28;20044;-69
2022/05/08 10:53:21;;;;;;;4.60;1.38;;;;;;;19.56;27.85;101349.19;5055907;28;20063;-69
2022/05/08 10:55:47;;;;;;;4.00;1.23;;;;;;;19.54;29.36;101351.88;5055225;28;20392;-69
2022/05/08 10:58:12;;;;;;;2.97;1.20;;;;;;;19.72;29.08;101366.25;5055620;28;20036;-69
2022/05/08 11:00:37;;;;;;;3.90;1.27;;;;;;;19.91;28.97;101347.66;5055359;28;20033;-69
2022/05/08 11:03:03;;;;;;;2.72;1.13;;;;;;;19.90;28.66;101352.09;5054174;28;20033;-69
2022/05/08 11:05:31;;;;;;;4.22;1.45;;;;;;;19.70;28.97;101349.44;5055159;28;20049;-69
2022/05/08 11:08:03;;;;;;;3.13;1.20;;;;;;;19.74;28.19;101367.03;5070779;28;20029;-70
2022/05/08 11:10:39;;;;;;;6.10;1.13;;;;;;;19.89;29.28;101366.38;5070735;28;20033;-69
2022/05/08 11:13:18;;;;;;;5.60;1.33;;;;;;;19.89;27.90;101352.16;5069194;28;20044;-68
2022/05/08 11:15:44;;;;;;;4.03;1.70;;;;;;;19.90;28.22;101360.09;5075423;28;20066;-70
2022/05/08 11:18:26;;;;;;;5.05;2.03;;;;;;;19.77;28.10;101364.25;5074283;28;20041;-69
2022/05/08 11:21:00;;;;;;;3.67;1.10;;;;;;;19.88;28.64;101372.63;5074409;28;20123;-70
2022/05/08 11:23:28;;;;;;;3.70;1.00;;;;;;;19.82;28.71;101374.69;5074080;28;20060;-70
2022/05/08 11:26:01;;;;;;;4.40;1.50;;;;;;;19.70;27.87;101378.78;5059374;28;20036;-69
2022/05/08 11:28:28;;;;;;;3.72;1.20;;;;;;;19.87;29.13;101356.72;5053095;28;20029;-69
2022/05/08 11:30:56;;;;;;;4.97;1.17;;;;;;;20.09;28.84;101359.25;5056759;28;20032;-70
2022/05/08 11:36:25;;;;;;;2.63;0.90;;;;;;;19.89;28.06;101373.50;5073686;28;20071;-69
2022/05/08 11:38:56;;;;;;;3.47;1.17;;;;;;;19.83;28.93;101368.47;5073830;28;20038;-69
2022/05/08 11:41:28;;;;;;;3.55;1.10;;;;;;;19.94;28.64;101358.16;5073637;28;20059;-69
2022/05/08 11:43:58;;;;;;;3.40;0.98;;;;;;;19.88;28.23;101367.31;5073095;28;20087;-69
2022/05/08 11:46:34;;;;;;;4.70;1.30;;;;;;;20.00;27.86;101389.03;5056155;28;20468;-69
2022/05/08 11:49:01;;;;;;;4.68;1.05;;;;;;;19.94;29.17;101375.00;5055495;28;20094;-70